Peter Möller

Olheiro - Werder Bremen
4 Abr 2027
Domingo
Processo

Personalidade

Adaptabilidade (2) Ambição (16) Controvérsia (15) Lealdade (7) Pressão (18) Profissionalismo (15) Espírito Esportivo (11) Temperamento (19)

Perfil

Estilo de Treinamento Democrático
Licença Continental Pro
Determinação 6
Gestão de Pessoas 9
Motivação 14
Disciplina 6
Satisfação no Trabalho
61%
Fadiga
0%
Função Olheiro
Salário 52.4K p/s
Contrato 14.03.2030

Desempenho

Comportamento Bom
Eficácia do Treinamento
35%
Desenvolvimento do Jogador
35%
Prevenção de Lesões
50%
Implementação Tática
65%

Eventos Recentes

Participou de uma reunião de recrutamento agora
Recomendou um alvo de transferência agora
Participou de uma reunião de recrutamento agora
Avaliou um jogador agora
Avaliou um jogador agora
Avaliou um jogador agora
Observou uma partida agora
Observou uma partida agora

Monitorando agora

79
Jogador Clube Status Habilidade Confiança Observado Última observação Último voto
Rocco Vata Watford Ativo 127 / 118 40% 1 03.04.2027 -
Markus Jensen Nacional Ativo 110 / 111 40% 1 02.04.2027 -
Sabil Hansen Randers Ativo 108 / 114 40% 1 02.04.2027 -
Juan Pablo De la Reta Maipú Ativo 108 / 108 40% 1 30.03.2027 -
Dylan Gorosito Boca Juniors Ativo 105 / 126 40% 1 30.03.2027 -
Dehmaine Tabibou FC Nantes Ativo 137 / 129 40% 1 30.03.2027 -
Gorka Gorosabel Real Sociedad Ativo 102 / 106 40% 1 30.03.2027 -
Wellity Lucky Liverpool Ativo 102 / 105 40% 2 26.03.2027 -
Tylel Tati Monaco Ativo 120 / 119 40% 1 26.03.2027 -
Teun Gijselhart Deportivo La Coruña Ativo 118 / 105 40% 2 25.03.2027 -
Harrison McMahon Chelsea Ativo 90 / 115 40% 1 25.03.2027 -
Gonçalo Oliveira Benfica Ativo 117 / 123 40% 1 24.03.2027 -
Emirhan Başyiğit Sivasspor Ativo 102 / 104 40% 1 24.03.2027 -
Sergio Quintero La Equidad Ativo 139 / 137 40% 1 23.03.2027 -
Cemran Dansin Orlando Pirates Ativo 103 / 102 40% 1 23.03.2027 -
Khalis Merah LOSC Lille Ativo 132 / 120 40% 1 20.03.2027 -
Chris Rigg Sunderland Ativo 120 / 143 40% 1 20.03.2027 -
Lucas Agazzi Defensor Sporting Ativo 116 / 134 40% 1 18.03.2027 -
Santiago Daniele Chacarita Juniors Ativo 102 / 107 40% 1 18.03.2027 -
Mirko Juárez Quilmes Ativo 96 / 103 40% 1 17.03.2027 -
Jon Martín Real Sociedad Ativo 125 / 138 40% 1 17.03.2027 -
João Teixeira Porto Ativo 111 / 118 40% 1 16.03.2027 -
Joaquin Seys Club Brugge Ativo 125 / 124 40% 1 16.03.2027 -
Pedro Zenit Ativo 134 / 135 40% 1 05.03.2027 -
Ruan Alanyaspor Ativo 137 / 134 40% 1 05.03.2027 -
Martim Cunha Porto Ativo 103 / 100 40% 1 03.03.2027 -
Olívio Tomé Benfica Ativo 97 / 112 40% 1 03.03.2027 -
Mads Pedersen FC Augsburg Ativo 116 / 122 58% 1 11.01.2027 Aprovar
Metinho Basel Ativo 135 / 138 40% 2 30.12.2026 -
Erick Pulga Bahia Ativo 125 / 130 40% 1 30.12.2026 -
Martinelli Fluminense Ativo 130 / 145 40% 2 26.12.2026 -
Sikou Niakaté Braga Ativo 136 / 131 40% 1 26.12.2026 -
Alvyn Sanches Young Boys Ativo 140 / 138 40% 3 24.12.2026 -
Jens Petter Hauge Bodo/Glimt Ativo 142 / 126 40% 1 24.12.2026 -
Alexandre Penetra AZ Ativo 141 / 132 40% 3 23.12.2026 -
Henry Mosquera Bragantino Ativo 125 / 122 40% 1 23.12.2026 -
Tomáš Rigo Stoke City Ativo 121 / 138 40% 1 23.12.2026 -
Wilfried Singo Galatasaray Ativo 148 / 151 40% 1 23.12.2026 -
Sebastián Cáceres Club America Ativo 120 / 119 40% 2 20.12.2026 -
Alex Luna Instituto Ativo 136 / 138 40% 2 19.12.2026 -
Efraín Álvarez Guadalajara Ativo 138 / 114 40% 1 19.12.2026 -
Aral Şimşir Trabzonspor Ativo 133 / 120 40% 1 17.12.2026 -
Kein Sato FC Tokyo Ativo 120 / 145 40% 1 17.12.2026 -
Marcus Holmgren Pedersen Olympiacos Ativo 145 / 137 40% 1 15.12.2026 -
Facundo Pellistri Panathinaikos Ativo 127 / 120 40% 2 10.12.2026 -
Félix Lemaréchal Club Brugge Ativo 144 / 136 40% 1 10.12.2026 -
Kiliann Sildillia PSV Ativo 140 / 136 40% 1 09.12.2026 -
Gustavo Mantuan Zenit Ativo 138 / 130 40% 1 06.12.2026 -
İsmail Yüksek Fenerbahce Ativo 138 / 125 40% 1 06.12.2026 -
Aurèle Amenda Coventry City Ativo 139 / 136 40% 1 05.12.2026 -
Nicolò Bertola Udinese Ativo 129 / 143 40% 1 05.12.2026 -
Isma Ruiz Córdoba Ativo 140 / 127 40% 1 04.12.2026 -
Nehuén Pérez Porto Ativo 151 / 136 40% 1 03.12.2026 -
Cesar Corona Veracruz Ativo 146 / 131 40% 1 29.11.2026 -
Exequiel Zeballos Boca Juniors Ativo 136 / 143 40% 1 19.11.2026 -
Marlon Gomes Shakhtar Ativo 135 / 146 40% 1 14.11.2026 -
Caio Alexandre Bahia Ativo 140 / 128 40% 1 14.11.2026 -
Luca Orellano Monterrey Ativo 122 / 132 40% 1 08.11.2026 -
Nuno Moreira Vasco da Gama Ativo 137 / 122 40% 1 31.10.2026 -
Marquinhos Spartak Moscow Ativo 134 / 138 40% 1 27.10.2026 -
Gedson Fernandes Spartak Moscow Ativo 137 / 141 40% 1 25.10.2026 -
Vitinho Botafogo Ativo 139 / 129 40% 1 25.10.2026 -
Yacine Adli Al-Shabab Ativo 137 / 134 40% 1 21.10.2026 -
Thierry Rendall Correia Venezia Ativo 145 / 146 40% 1 21.10.2026 Mais informações
Adrià Altimira Deportivo La Coruña Ativo 124 / 130 40% 1 14.10.2026 -
Alan Velasco Boca Juniors Ativo 122 / 126 40% 1 14.10.2026 -
Ilias Akhomach Villarreal Ativo 133 / 144 40% 2 12.10.2026 -
Mattia Zanotti Lugano Ativo 133 / 131 40% 1 12.10.2026 -
Igoh Ogbu Racing Genk Ativo 137 / 154 40% 1 07.10.2026 Mais informações
Gabriel Sara Galatasaray Ativo 126 / 145 40% 1 05.10.2026 -
Erik Lira Cruz Azul Ativo 122 / 123 40% 1 05.10.2026 -
Riqui Puig LA Galaxy Ativo 142 / 129 40% 1 04.10.2026 -
Fabian Rieder FC Augsburg Ativo 127 / 124 40% 1 03.10.2026 -
José Paradela Cruz Azul Ativo 145 / 122 40% 1 03.10.2026 -
Maurits Kjærgaard Red Bull Salzburg Ativo 139 / 141 40% 1 27.09.2026 -
Antony Portland Timbers Ativo 132 / 124 40% 1 27.09.2026 -
Michy Fellaini KV Oostende Ativo 128 / 129 40% 1 14.09.2026 -
Nicolas Madsen Queens Park Rangers Ativo 131 / 123 40% 1 14.09.2026 -
Haissem Hassan Bloemfontein Celtic Ativo 116 / 130 40% 1 13.09.2026 -